Time;durP1;ratioP1;P1;durP2;ratioP2;P2;SDS_P1;SDS_P2;PMS_P1;PMS_P2;Temp;Humidity;BMP_temperature;BMP_pressure;BME280_temperature;BME280_humidity;BME280_pressure;Samples;Min_cycle;Max_cycle;Signal;HPM_P1;HPM_P2
2021/11/19 00:01:13;;;;;;;8.40;4.97;;;;;;;6.51;75.04;97151.98;1798464;80;20969;-82
2021/11/19 00:03:39;;;;;;;5.47;3.85;;;;;;;6.50;75.45;97159.36;1797744;80;20949;-82
2021/11/19 00:06:05;;;;;;;6.72;3.45;;;;;;;6.51;75.53;97165.37;1798360;80;20973;-82
2021/11/19 00:08:31;;;;;;;6.72;4.15;;;;;;;6.49;75.61;97162.89;1798325;80;21068;-82
2021/11/19 00:11:02;;;;;;;6.60;4.37;;;;;;;6.47;75.63;97156.24;1798325;80;20990;-82
2021/11/19 00:13:31;;;;;;;4.87;3.45;;;;;;;6.42;75.68;97165.70;1798622;80;20973;-82
2021/11/19 00:15:58;;;;;;;6.60;4.22;;;;;;;6.38;75.53;97158.37;1798474;80;21012;-82
2021/11/19 00:18:24;;;;;;;8.08;4.10;;;;;;;6.35;75.50;97161.23;1798274;80;21041;-82
2021/11/19 00:20:50;;;;;;;10.45;5.05;;;;;;;6.34;75.53;97151.35;1798164;80;21350;-82
2021/11/19 00:23:17;;;;;;;7.33;4.42;;;;;;;6.33;75.66;97140.69;1798279;80;20995;-82
2021/11/19 00:25:43;;;;;;;6.15;4.37;;;;;;;6.35;75.85;97132.84;1798216;80;20997;-82
2021/11/19 00:28:09;;;;;;;7.92;3.92;;;;;;;6.33;75.96;97131.66;1798301;80;20948;-82
2021/11/19 00:30:36;;;;;;;5.97;4.30;;;;;;;6.29;75.94;97123.38;1798154;80;20957;-82
2021/11/19 00:33:02;;;;;;;5.95;4.25;;;;;;;6.28;76.04;97122.23;1798253;80;21012;-82
2021/11/19 00:35:28;;;;;;;8.28;4.35;;;;;;;6.26;76.09;97125.42;1798488;80;21371;-82
2021/11/19 00:37:55;;;;;;;5.62;4.40;;;;;;;6.23;76.16;97131.68;1798429;80;20965;-83
2021/11/19 00:40:33;;;;;;;6.72;4.30;;;;;;;6.23;75.98;97130.86;1798404;80;20966;-82
2021/11/19 00:42:59;;;;;;;4.20;3.40;;;;;;;6.23;75.91;97134.73;1798824;80;21020;-82
2021/11/19 00:45:25;;;;;;;7.35;4.45;;;;;;;6.26;75.79;97137.04;1798517;80;21028;-82
2021/11/19 00:47:52;;;;;;;6.20;4.17;;;;;;;6.25;76.04;97145.73;1798587;80;21316;-82
2021/11/19 00:50:21;;;;;;;7.55;5.37;;;;;;;6.23;76.08;97142.48;1798469;80;21008;-82
2021/11/19 00:52:46;;;;;;;6.97;4.45;;;;;;;6.19;76.35;97141.94;1768065;80;20989;-82
2021/11/19 00:55:12;;;;;;;7.70;4.83;;;;;;;6.18;76.37;97146.77;1795337;80;21080;-82
2021/11/19 00:57:38;;;;;;;9.25;4.55;;;;;;;6.18;76.47;97154.50;1795476;80;20937;-82
2021/11/19 01:00:08;;;;;;;6.70;4.35;;;;;;;6.20;76.47;97150.50;1795374;80;20981;-82
2021/11/19 01:02:33;;;;;;;5.53;4.05;;;;;;;6.23;76.60;97131.68;1795156;80;21005;-83
2021/11/19 01:05:00;;;;;;;6.20;4.50;;;;;;;6.24;76.62;97125.56;1795466;80;20961;-82
2021/11/19 01:07:25;;;;;;;5.20;3.90;;;;;;;6.22;76.57;97111.98;1795206;80;20988;-82
2021/11/19 01:09:57;;;;;;;5.75;3.98;;;;;;;6.20;76.70;97113.89;1795103;80;21008;-82
2021/11/19 01:12:26;;;;;;;5.47;4.22;;;;;;;6.18;76.64;97125.28;1793971;80;21465;-82
2021/11/19 01:15:03;;;;;;;9.35;3.87;;;;;;;6.14;76.83;97124.73;1795225;80;20980;-82
2021/11/19 01:17:40;;;;;;;6.67;3.47;;;;;;;6.17;76.78;97130.09;1794833;80;20930;-82
2021/11/19 01:20:32;;;;;;;7.05;3.12;;;;;;;6.19;76.74;97139.36;1795386;80;21001;-82
2021/11/19 01:22:59;;;;;;;4.90;3.92;;;;;;;6.19;76.87;97147.10;1795538;80;21077;-83
2021/11/19 01:25:29;;;;;;;6.25;5.12;;;;;;;6.19;76.95;97138.55;1795357;80;21486;-82
2021/11/19 01:27:55;;;;;;;7.87;4.33;;;;;;;6.19;77.05;97136.78;1795276;80;21041;-82
2021/11/19 01:30:26;;;;;;;4.97;4.20;;;;;;;6.19;77.23;97127.75;1765338;80;21048;-82
2021/11/19 01:32:52;;;;;;;5.58;3.92;;;;;;;6.17;77.34;97131.39;1794762;80;21012;-82
2021/11/19 01:35:18;;;;;;;5.78;4.62;;;;;;;6.18;77.47;97124.83;1795270;80;20995;-82
2021/11/19 01:37:44;;;;;;;9.08;6.30;;;;;;;6.19;77.30;97130.33;1766672;80;21004;-82
2021/11/19 01:40:12;;;;;;;12.82;7.35;;;;;;;6.21;77.37;97125.03;1795351;80;20993;-83
2021/11/19 01:42:43;;;;;;;12.05;5.92;;;;;;;6.21;77.39;97142.62;1778395;80;21422;-82
2021/11/19 01:45:16;;;;;;;8.90;5.75;;;;;;;6.21;77.50;97130.19;1794984;80;21010;-82
2021/11/19 01:47:46;;;;;;;7.55;5.12;;;;;;;6.19;77.56;97132.09;1764073;81;21014;-82
2021/11/19 01:50:30;;;;;;;9.70;5.55;;;;;;;6.16;77.60;97131.86;1795446;80;21051;-82
2021/11/19 01:53:09;;;;;;;9.83;5.90;;;;;;;6.13;77.91;97128.27;1796613;80;21126;-82
2021/11/19 01:55:40;;;;;;;8.23;6.28;;;;;;;6.11;77.96;97124.20;1764917;81;21099;-82
2021/11/19 01:58:18;;;;;;;10.28;6.17;;;;;;;6.10;78.35;97113.06;1765383;81;21096;-82
2021/11/19 02:00:59;;;;;;;11.80;5.90;;;;;;;6.09;78.30;97118.37;1764772;81;21009;-82
2021/11/19 02:03:27;;;;;;;8.90;5.72;;;;;;;6.05;78.54;97107.98;1764103;81;20971;-82
2021/11/19 02:06:04;;;;;;;9.30;6.65;;;;;;;5.99;78.76;97092.55;1765084;81;21030;-82
2021/11/19 02:08:37;;;;;;;7.15;5.67;;;;;;;5.96;78.88;97085.09;1765138;81;21042;-82
2021/11/19 02:11:18;;;;;;;8.63;5.55;;;;;;;5.95;79.02;97087.33;1765050;81;21381;-82
2021/11/19 02:14:04;;;;;;;9.43;7.47;;;;;;;5.97;78.98;97092.69;1765207;81;20982;-82
2021/11/19 02:16:40;;;;;;;7.08;4.67;;;;;;;6.00;78.99;97085.97;1764961;81;21404;-83
2021/11/19 02:19:14;;;;;;;6.25;5.00;;;;;;;6.02;79.36;97098.75;1741521;81;21058;-82
2021/11/19 02:21:54;;;;;;;9.20;7.40;;;;;;;5.97;79.40;97094.45;1765110;81;20935;-83
2021/11/19 02:24:31;;;;;;;8.18;5.42;;;;;;;5.95;79.71;97086.86;1764445;81;21384;-82
2021/11/19 02:27:14;;;;;;;8.33;5.65;;;;;;;5.92;79.76;97084.55;1764908;81;21030;-82
2021/11/19 02:29:47;;;;;;;6.62;5.37;;;;;;;5.92;79.91;97085.84;1765079;81;21329;-82
2021/11/19 02:32:18;;;;;;;6.70;5.75;;;;;;;5.92;80.00;97090.19;1764922;81;20959;-81
2021/11/19 02:34:44;;;;;;;7.72;5.12;;;;;;;5.92;79.82;97083.27;1765146;81;20966;-82
2021/11/19 02:37:15;;;;;;;7.95;4.55;;;;;;;5.92;79.85;97085.84;1765213;81;21349;-82
2021/11/19 02:39:45;;;;;;;5.37;4.83;;;;;;;5.93;80.02;97074.58;1765073;81;21089;-82
2021/11/19 02:42:21;;;;;;;5.90;4.05;;;;;;;5.90;80.10;97077.91;1765273;81;21423;-82
2021/11/19 02:44:50;;;;;;;7.53;5.10;;;;;;;5.88;80.15;97071.56;1765005;81;20993;-82
2021/11/19 02:47:19;;;;;;;7.35;5.65;;;;;;;5.90;80.16;97071.45;1764788;81;21019;-82
2021/11/19 02:49:45;;;;;;;6.08;4.92;;;;;;;5.94;80.22;97069.75;1765072;81;21010;-82
2021/11/19 02:52:19;;;;;;;5.37;4.37;;;;;;;5.95;80.14;97079.12;1765152;81;21400;-82
2021/11/19 02:54:45;;;;;;;6.85;5.87;;;;;;;5.95;80.08;97092.02;1764813;81;21129;-82
2021/11/19 02:57:11;;;;;;;7.00;5.47;;;;;;;5.94;80.21;97093.44;1765272;81;21021;-82
2021/11/19 02:59:37;;;;;;;6.53;5.10;;;;;;;5.92;80.61;97087.61;1765360;81;21324;-82
2021/11/19 03:02:08;;;;;;;6.67;4.62;;;;;;;5.91;80.30;97086.80;1765562;81;20950;-82
2021/11/19 03:04:40;;;;;;;5.97;4.17;;;;;;;5.92;80.56;97069.08;1765406;81;20935;-82
2021/11/19 03:07:06;;;;;;;5.28;3.65;;;;;;;5.94;80.35;97069.75;1765322;81;21387;-82
2021/11/19 03:09:37;;;;;;;5.97;4.53;;;;;;;5.96;80.45;97069.14;1765261;81;21005;-82
2021/11/19 03:12:05;;;;;;;6.30;4.97;;;;;;;5.98;80.45;97065.13;1765081;81;20978;-82
2021/11/19 03:14:32;;;;;;;5.12;4.30;;;;;;;5.97;80.67;97056.58;1765153;81;21094;-82
2021/11/19 03:16:58;;;;;;;7.22;4.53;;;;;;;5.99;80.56;97057.73;1765169;81;20938;-82
2021/11/19 03:19:24;;;;;;;4.35;3.80;;;;;;;6.00;80.66;97051.14;1765317;81;21449;-82
2021/11/19 03:21:49;;;;;;;22.58;16.20;;;;;;;6.00;80.79;97051.14;1765419;81;20994;-82
2021/11/19 03:24:16;;;;;;;31.25;15.18;;;;;;;5.99;80.81;97049.98;1765419;81;21029;-82
2021/11/19 03:26:41;;;;;;;6.75;5.00;;;;;;;6.01;80.95;97041.16;1765153;81;21093;-82
2021/11/19 03:29:08;;;;;;;13.05;8.35;;;;;;;6.06;80.76;97038.66;1765190;81;21017;-82
2021/11/19 03:31:35;;;;;;;6.85;4.62;;;;;;;6.10;80.76;97043.41;1765324;81;20978;-82
2021/11/19 03:34:00;;;;;;;6.40;4.83;;;;;;;6.13;80.83;97057.31;1765182;81;21006;-82
2021/11/19 03:36:26;;;;;;;7.67;5.25;;;;;;;6.13;80.83;97051.34;1765366;81;21337;-82
2021/11/19 03:38:55;;;;;;;5.80;4.37;;;;;;;6.13;80.90;97046.99;1765436;81;21085;-82
2021/11/19 03:41:26;;;;;;;8.20;5.83;;;;;;;6.14;80.96;97055.55;1762404;80;21021;-82
2021/11/19 03:44:00;;;;;;;7.15;4.60;;;;;;;6.16;80.91;97053.64;1763969;81;21360;-82
2021/11/19 03:46:42;;;;;;;6.25;4.53;;;;;;;6.19;80.86;97055.97;1739237;82;21131;-82
2021/11/19 03:49:10;;;;;;;5.45;4.10;;;;;;;6.23;80.81;97050.39;1760908;81;21120;-82
2021/11/19 03:51:43;;;;;;;5.40;4.15;;;;;;;6.24;80.81;97033.14;1760957;81;21348;-82
2021/11/19 03:54:10;;;;;;;5.12;4.42;;;;;;;6.23;80.90;97040.55;1760901;81;21005;-82
2021/11/19 03:56:36;;;;;;;4.65;3.35;;;;;;;6.20;80.93;97030.02;1760861;81;21045;-82
2021/11/19 03:59:04;;;;;;;4.67;3.77;;;;;;;6.23;80.91;97034.09;1761021;81;20962;-82
2021/11/19 04:01:34;;;;;;;4.60;4.20;;;;;;;6.29;80.94;97036.11;1760967;81;21089;-82
2021/11/19 04:04:01;;;;;;;5.00;4.50;;;;;;;6.32;80.91;97026.78;1760919;81;21392;-82
2021/11/19 04:06:27;;;;;;;4.40;3.67;;;;;;;6.35;80.93;97027.02;1760926;81;20968;-82
2021/11/19 04:08:53;;;;;;;4.70;3.75;;;;;;;6.35;80.94;97019.27;1760983;81;21333;-82
2021/11/19 04:11:19;;;;;;;5.20;4.03;;;;;;;6.36;80.93;97032.51;1760852;81;21025;-82
2021/11/19 04:13:45;;;;;;;4.30;3.90;;;;;;;6.34;81.02;97039.08;1761240;81;21360;-82
2021/11/19 04:16:22;;;;;;;4.85;3.75;;;;;;;6.34;81.15;97032.62;1761066;81;21020;-83
2021/11/19 04:18:48;;;;;;;5.28;3.55;;;;;;;6.33;81.26;97034.87;1757460;81;20989;-82
2021/11/19 04:21:15;;;;;;;4.72;3.35;;;;;;;6.35;81.33;97021.84;1761055;81;20989;-82
2021/11/19 04:23:41;;;;;;;4.00;3.60;;;;;;;6.34;81.37;97026.17;1760984;81;20989;-82
2021/11/19 04:26:08;;;;;;;12.80;10.93;;;;;;;6.38;81.45;97022.38;1760945;81;21490;-83
2021/11/19 04:28:34;;;;;;;17.92;13.55;;;;;;;6.41;81.56;97025.97;1760821;81;20985;-82
2021/11/19 04:30:59;;;;;;;8.50;6.47;;;;;;;6.41;81.57;97010.48;1760873;81;20970;-82
2021/11/19 04:33:25;;;;;;;4.50;3.98;;;;;;;6.41;81.63;97019.51;1760924;81;21056;-82
2021/11/19 04:35:52;;;;;;;5.90;4.70;;;;;;;6.40;81.67;97016.59;1761181;81;20996;-82
2021/11/19 04:38:19;;;;;;;8.93;6.42;;;;;;;6.45;81.69;97014.40;1760834;81;20982;-82
2021/11/19 04:40:45;;;;;;;4.97;3.98;;;;;;;6.50;81.66;97007.52;1760779;81;21427;-82
2021/11/19 04:43:11;;;;;;;5.85;4.40;;;;;;;6.54;81.64;96999.37;1780430;78;20945;-82
2021/11/19 04:45:36;;;;;;;4.60;3.90;;;;;;;6.57;81.58;96998.27;1798210;80;21012;-82
2021/11/19 04:48:03;;;;;;;4.30;3.75;;;;;;;6.58;81.61;97002.00;1798511;80;21399;-83
2021/11/19 04:50:34;;;;;;;4.75;3.45;;;;;;;6.58;81.80;97018.78;1798520;80;21072;-83
2021/11/19 04:53:00;;;;;;;6.10;4.55;;;;;;;6.58;81.77;97015.38;1798382;80;20965;-82
2021/11/19 04:55:27;;;;;;;5.60;4.45;;;;;;;6.60;81.67;97016.86;1798306;80;21474;-82
2021/11/19 04:57:52;;;;;;;4.35;3.12;;;;;;;6.61;81.60;97004.77;1798373;80;20968;-82
2021/11/19 05:00:27;;;;;;;3.60;3.00;;;;;;;6.63;81.57;97014.47;1798452;80;21370;-82
2021/11/19 05:02:53;;;;;;;4.20;3.67;;;;;;;6.65;81.65;97007.88;1797752;80;20973;-82
2021/11/19 05:05:19;;;;;;;3.45;2.80;;;;;;;6.65;81.72;97015.62;1798273;80;21466;-82
2021/11/19 05:07:45;;;;;;;8.50;5.83;;;;;;;6.61;81.88;97014.61;1798281;80;21047;-82
2021/11/19 05:10:11;;;;;;;7.45;4.40;;;;;;;6.61;82.08;97017.20;1798225;80;21048;-82
2021/11/19 05:12:42;;;;;;;10.70;6.60;;;;;;;6.57;82.19;97011.98;1797905;80;21412;-82
2021/11/19 05:15:09;;;;;;;12.63;7.50;;;;;;;6.59;82.19;97011.84;1797800;80;21004;-82
2021/11/19 05:17:36;;;;;;;12.82;7.62;;;;;;;6.62;82.28;97012.84;1798433;80;20992;-82
2021/11/19 05:20:04;;;;;;;7.85;5.65;;;;;;;6.62;82.36;97003.33;1798409;80;20948;-83
2021/11/19 05:22:30;;;;;;;5.83;4.50;;;;;;;6.64;82.59;97008.35;1798384;80;21062;-82
2021/11/19 05:24:56;;;;;;;6.92;5.62;;;;;;;6.65;83.01;96997.55;1798366;80;21008;-82
2021/11/19 05:27:22;;;;;;;5.03;4.10;;;;;;;6.60;82.89;97000.56;1798333;80;20977;-82
2021/11/19 05:29:47;;;;;;;5.03;4.53;;;;;;;6.62;82.78;97000.75;1798106;80;20969;-83
2021/11/19 05:32:13;;;;;;;5.92;5.17;;;;;;;6.66;82.83;97003.04;1798439;80;20945;-82
2021/11/19 05:34:39;;;;;;;6.55;4.72;;;;;;;6.69;82.71;97001.49;1798445;80;21052;-82
2021/11/19 05:37:05;;;;;;;4.17;3.65;;;;;;;6.70;82.71;96992.79;1798364;80;20979;-82
2021/11/19 05:39:30;;;;;;;3.77;2.98;;;;;;;6.70;82.82;97001.83;1798533;80;20976;-82
2021/11/19 05:41:56;;;;;;;3.52;2.92;;;;;;;6.70;83.20;97005.70;1798256;80;20980;-82
2021/11/19 05:44:23;;;;;;;4.40;3.60;;;;;;;6.70;83.13;97003.12;1798211;80;21003;-82
2021/11/19 05:46:50;;;;;;;3.22;2.92;;;;;;;6.71;83.03;97013.30;1798141;80;20965;-82
2021/11/19 05:49:19;;;;;;;6.17;5.25;;;;;;;6.75;83.09;97009.95;1798254;80;21008;-82
2021/11/19 05:51:46;;;;;;;7.60;6.90;;;;;;;6.79;83.07;97010.00;1798265;80;20980;-82
2021/11/19 05:54:14;;;;;;;13.32;8.55;;;;;;;6.81;83.05;97010.66;1798265;80;21120;-82
2021/11/19 05:56:40;;;;;;;12.20;8.30;;;;;;;6.83;83.08;97010.88;1798109;80;21044;-82
2021/11/19 05:59:06;;;;;;;6.97;4.95;;;;;;;6.86;83.19;97017.53;1798238;80;21024;-82
2021/11/19 06:01:31;;;;;;;5.10;3.92;;;;;;;6.86;83.48;97024.80;1798349;80;20953;-82
2021/11/19 06:03:57;;;;;;;5.17;3.80;;;;;;;6.86;83.57;97023.98;1798428;80;20949;-82
2021/11/19 06:06:23;;;;;;;6.17;4.53;;;;;;;6.85;83.50;97023.17;1798014;80;21022;-83
2021/11/19 06:08:49;;;;;;;8.95;5.75;;;;;;;6.88;83.50;97030.63;1798393;80;21459;-82
2021/11/19 06:11:24;;;;;;;5.53;4.35;;;;;;;6.89;83.68;97036.61;1798256;80;21076;-82
2021/11/19 06:13:58;;;;;;;5.42;4.40;;;;;;;6.88;83.87;97037.56;1796922;80;21375;-82
2021/11/19 06:16:28;;;;;;;5.28;4.20;;;;;;;6.86;84.00;97030.44;1798316;80;21387;-82
2021/11/19 06:18:59;;;;;;;7.75;5.45;;;;;;;6.82;84.08;97032.47;1798386;80;21024;-82
2021/11/19 06:21:32;;;;;;;8.40;5.72;;;;;;;6.81;84.29;97033.91;1797298;80;21473;-82
2021/11/19 06:24:03;;;;;;;4.85;4.00;;;;;;;6.79;84.37;97046.97;1798368;80;21059;-83
2021/11/19 06:26:29;;;;;;;5.45;4.37;;;;;;;6.79;84.69;97046.16;1773354;80;21040;-83
2021/11/19 06:29:03;;;;;;;6.10;4.67;;;;;;;6.75;84.98;97044.81;1798289;80;21000;-82
2021/11/19 06:31:25;;;;;;;5.75;3.72;;;;;;;6.71;85.57;97046.88;1797497;80;21000;-83
2021/11/19 06:33:50;;;;;;;6.62;5.33;;;;;;;6.66;85.54;97046.94;1798472;80;20984;-82
2021/11/19 06:36:16;;;;;;;4.78;4.28;;;;;;;6.67;85.64;97057.16;1772716;80;21327;-82
2021/11/19 06:38:45;;;;;;;54.48;31.42;;;;;;;6.70;85.82;97053.00;1798443;80;20964;-83
2021/11/19 06:41:11;;;;;;;32.23;16.40;;;;;;;6.72;85.93;97054.14;1798389;80;20992;-83
2021/11/19 06:43:37;;;;;;;21.42;12.20;;;;;;;6.72;86.25;97058.83;1798677;80;21299;-83
2021/11/19 06:46:03;;;;;;;13.08;7.90;;;;;;;6.71;86.10;97066.25;1799445;80;21036;-83
2021/11/19 06:48:28;;;;;;;9.00;5.92;;;;;;;6.70;86.29;97057.35;1800431;80;21004;-83
2021/11/19 06:50:54;;;;;;;8.48;5.40;;;;;;;6.67;87.29;97073.10;1801468;80;21249;-84
2021/11/19 06:53:22;;;;;;;5.80;4.65;;;;;;;6.66;86.86;97070.19;1799512;80;21072;-84
2021/11/19 06:55:48;;;;;;;7.12;5.30;;;;;;;6.66;86.97;97071.00;1798139;80;21031;-84
2021/11/19 06:58:14;;;;;;;13.28;9.18;;;;;;;6.71;87.18;97075.77;1797661;80;21009;-83
2021/11/19 07:00:43;;;;;;;11.85;8.50;;;;;;;6.73;87.29;97079.02;1795395;79;20985;-83
2021/11/19 07:03:09;;;;;;;12.05;9.10;;;;;;;6.76;87.43;97079.54;1797181;80;21387;-83
2021/11/19 07:05:35;;;;;;;7.62;6.28;;;;;;;6.79;87.42;97084.42;1796884;80;21043;-83
2021/11/19 07:08:06;;;;;;;8.90;7.50;;;;;;;6.79;87.47;97083.61;1796986;80;20965;-83
2021/11/19 07:10:32;;;;;;;7.55;6.50;;;;;;;6.82;87.63;97083.32;1797162;80;21071;-84
2021/11/19 07:12:58;;;;;;;6.37;4.72;;;;;;;6.83;87.85;97081.08;1797407;80;20999;-83
2021/11/19 07:15:24;;;;;;;5.55;5.00;;;;;;;6.82;88.26;97080.26;1796631;80;21009;-83
2021/11/19 07:17:50;;;;;;;5.25;4.50;;;;;;;6.81;87.88;97086.86;1796902;80;21017;-84
2021/11/19 07:20:19;;;;;;;4.12;3.08;;;;;;;6.79;87.88;97075.38;1796811;80;21455;-84
2021/11/19 07:22:45;;;;;;;2.20;2.00;;;;;;;6.79;87.92;97073.28;1796749;80;21020;-83
2021/11/19 07:25:16;;;;;;;4.20;3.55;;;;;;;6.77;88.01;97073.42;1796468;80;20999;-83
2021/11/19 07:27:42;;;;;;;22.85;18.73;;;;;;;6.77;88.22;97073.89;1796588;80;21549;-83
2021/11/19 07:30:11;;;;;;;9.13;6.30;;;;;;;6.76;88.43;97065.34;1796249;80;21060;-83
2021/11/19 07:32:37;;;;;;;10.98;7.53;;;;;;;6.75;88.50;97079.20;1796087;80;21375;-83
2021/11/19 07:35:04;;;;;;;10.48;7.47;;;;;;;6.77;88.40;97078.59;1795849;80;21077;-83
2021/11/19 07:37:29;;;;;;;3.98;3.00;;;;;;;6.80;89.16;97083.47;1795995;80;20969;-83
2021/11/19 07:39:55;;;;;;;6.72;5.15;;;;;;;6.79;88.54;97083.13;1796077;80;20963;-83
2021/11/19 07:42:21;;;;;;;9.95;8.08;;;;;;;6.82;88.65;97093.66;1796014;80;20992;-83
2021/11/19 07:44:47;;;;;;;12.78;9.55;;;;;;;6.85;88.73;97098.09;1796080;80;20966;-83
2021/11/19 07:47:13;;;;;;;10.30;8.65;;;;;;;6.89;88.78;97103.78;1796276;80;21004;-83
2021/11/19 07:49:39;;;;;;;6.55;5.35;;;;;;;6.93;88.69;97102.53;1795802;80;21434;-83
2021/11/19 07:52:05;;;;;;;8.58;7.00;;;;;;;6.99;88.86;97105.83;1796264;80;20980;-83
2021/11/19 07:54:31;;;;;;;14.68;10.55;;;;;;;7.03;88.70;97107.67;1798264;80;21092;-83
2021/11/19 07:56:57;;;;;;;11.12;8.75;;;;;;;7.06;88.68;97104.33;1799253;80;21089;-83
2021/11/19 07:59:25;;;;;;;11.45;7.60;;;;;;;7.10;88.85;97103.08;1799598;80;21018;-83
2021/11/19 08:01:53;;;;;;;13.93;10.60;;;;;;;7.14;89.07;97099.72;1798760;80;21038;-84
2021/11/19 08:04:19;;;;;;;9.45;8.05;;;;;;;7.15;89.10;97109.92;1799640;80;20968;-84
2021/11/19 08:06:45;;;;;;;8.03;5.90;;;;;;;7.19;89.06;97093.67;1775461;80;21023;-83
2021/11/19 08:09:11;;;;;;;7.12;6.17;;;;;;;7.19;88.95;97098.36;1799920;80;21042;-83
2021/11/19 08:11:37;;;;;;;4.80;4.30;;;;;;;7.19;89.16;97095.78;1799837;80;21038;-84
2021/11/19 08:14:03;;;;;;;3.70;3.22;;;;;;;7.20;89.25;97092.23;1799680;80;20955;-84
2021/11/19 08:16:34;;;;;;;6.05;4.85;;;;;;;7.20;89.33;97089.65;1800166;80;21008;-84
2021/11/19 08:19:01;;;;;;;5.17;4.62;;;;;;;7.20;89.35;97093.53;1799515;80;21023;-84
2021/11/19 08:21:27;;;;;;;3.27;2.90;;;;;;;7.23;89.53;97091.94;1800053;80;21008;-84
2021/11/19 08:23:58;;;;;;;4.17;3.33;;;;;;;7.26;89.60;97095.19;1799653;80;21011;-83
2021/11/19 08:26:37;;;;;;;4.90;3.17;;;;;;;7.29;89.38;97093.61;1800055;80;21121;-84
2021/11/19 08:29:03;;;;;;;5.28;3.05;;;;;;;7.32;89.46;97089.44;1799682;80;20971;-84
2021/11/19 08:31:29;;;;;;;4.72;2.90;;;;;;;7.35;89.67;97099.03;1799864;80;20988;-84
2021/11/19 08:33:54;;;;;;;4.22;2.52;;;;;;;7.37;89.44;97100.18;1799814;80;21003;-83
2021/11/19 08:36:23;;;;;;;10.35;4.37;;;;;;;7.37;89.91;97102.77;1799844;80;21043;-84
2021/11/19 08:38:49;;;;;;;4.30;2.65;;;;;;;7.37;89.59;97106.16;1800226;80;21043;-84
2021/11/19 08:41:15;;;;;;;4.08;2.58;;;;;;;7.37;89.51;97100.99;1800130;80;21517;-83
2021/11/19 08:43:44;;;;;;;2.55;2.27;;;;;;;7.38;89.55;97111.67;1800208;80;20935;-84
2021/11/19 08:46:15;;;;;;;9.23;7.62;;;;;;;7.40;89.67;97101.18;1800269;80;21053;-83
2021/11/19 08:48:41;;;;;;;3.70;3.35;;;;;;;7.42;89.59;97107.02;1799894;80;21003;-84
2021/11/19 08:51:11;;;;;;;4.08;3.62;;;;;;;7.45;89.63;97116.59;1775771;80;21354;-84
2021/11/19 08:53:39;;;;;;;4.40;4.00;;;;;;;7.49;89.55;97115.36;1798035;80;20984;-84
2021/11/19 08:56:05;;;;;;;4.67;4.17;;;;;;;7.52;89.79;97119.42;1794792;80;20976;-84
2021/11/19 08:58:38;;;;;;;4.75;3.30;;;;;;;7.54;89.63;97109.75;1795283;80;20966;-84
2021/11/19 09:01:05;;;;;;;4.90;2.62;;;;;;;7.59;89.67;97119.66;1793522;80;21315;-84
2021/11/19 09:03:31;;;;;;;3.85;2.25;;;;;;;7.60;89.60;97119.98;1760158;81;20979;-84
2021/11/19 09:05:57;;;;;;;3.20;2.83;;;;;;;7.59;89.70;97111.41;1794967;80;21000;-84
2021/11/19 09:08:24;;;;;;;4.78;3.12;;;;;;;7.59;89.50;97114.00;1795573;80;20977;-83
2021/11/19 09:10:52;;;;;;;3.80;3.40;;;;;;;7.61;89.42;97108.20;1795094;80;20993;-84
2021/11/19 09:13:19;;;;;;;3.98;3.25;;;;;;;7.67;89.57;97111.52;1794962;80;20965;-84
2021/11/19 09:15:44;;;;;;;3.35;3.05;;;;;;;7.68;89.65;97106.67;1795077;80;21012;-84
2021/11/19 09:18:40;;;;;;;3.17;2.70;;;;;;;7.70;89.77;97112.52;1795443;80;21451;-84
2021/11/19 09:21:29;;;;;;;4.50;3.90;;;;;;;7.70;89.69;97103.94;1795521;80;20985;-84
2021/11/19 09:24:06;;;;;;;3.90;3.50;;;;;;;7.70;89.71;97108.63;1794520;80;21034;-84
2021/11/19 09:26:37;;;;;;;3.47;3.17;;;;;;;7.72;89.66;97113.17;1795453;80;21156;-84
2021/11/19 09:29:08;;;;;;;3.98;3.58;;;;;;;7.75;89.61;97114.17;1795762;80;21034;-84
2021/11/19 09:31:36;;;;;;;4.10;3.20;;;;;;;7.77;89.36;97125.66;1794055;80;21019;-84
2021/11/19 09:34:02;;;;;;;4.53;3.75;;;;;;;7.77;89.28;97125.66;1795478;80;20965;-84
2021/11/19 09:36:28;;;;;;;4.67;3.90;;;;;;;7.74;89.41;97129.84;1795551;80;20993;-84
2021/11/19 09:38:53;;;;;;;2.45;2.25;;;;;;;7.71;89.50;97125.78;1795330;80;20992;-84
2021/11/19 09:41:37;;;;;;;4.15;3.37;;;;;;;7.70;89.57;97124.63;1795171;80;21018;-84
2021/11/19 09:44:24;;;;;;;4.03;2.70;;;;;;;7.74;89.59;97129.36;1795471;80;20961;-84
2021/11/19 09:46:58;;;;;;;3.90;3.50;;;;;;;7.79;89.58;97127.14;1794414;80;20985;-84
2021/11/19 09:50:09;;;;;;;3.75;3.37;;;;;;;7.83;89.69;97134.97;1794776;80;21359;-84
2021/11/19 09:53:00;;;;;;;4.87;4.35;;;;;;;7.86;89.52;97133.05;1780335;80;21040;-84
2021/11/19 09:55:47;;;;;;;8.68;7.80;;;;;;;7.87;89.78;97132.08;1760785;80;21057;-84
2021/11/19 09:58:44;;;;;;;6.83;6.22;;;;;;;7.87;89.83;97141.14;1760785;81;21045;-84
2021/11/19 10:01:41;;;;;;;4.60;3.98;;;;;;;7.88;89.72;97139.70;1748222;82;21011;-84
2021/11/19 10:04:50;;;;;;;4.72;3.80;;;;;;;7.89;89.82;97131.45;1747755;82;21055;-84
2021/11/19 10:07:44;;;;;;;3.85;3.42;;;;;;;7.90;89.74;97126.13;1748059;82;20960;-84
2021/11/19 10:10:38;;;;;;;4.53;3.50;;;;;;;7.91;89.78;97128.23;1747884;82;21019;-84
2021/11/19 10:13:39;;;;;;;4.20;3.55;;;;;;;7.89;90.03;97121.10;1747912;82;20952;-84
2021/11/19 10:16:29;;;;;;;3.22;2.92;;;;;;;7.82;90.31;97114.42;1747775;82;20976;-84
2021/11/19 10:19:12;;;;;;;3.42;2.83;;;;;;;7.78;90.51;97107.89;1747827;82;21338;-84
2021/11/19 10:21:55;;;;;;;3.65;3.20;;;;;;;7.81;90.56;97103.73;1747946;82;21651;-84
2021/11/19 10:24:38;;;;;;;4.55;3.60;;;;;;;7.83;90.35;97103.11;1748052;82;21287;-84
2021/11/19 10:27:12;;;;;;;3.37;2.87;;;;;;;7.87;90.66;97103.14;1748019;82;21059;-84
2021/11/19 10:29:49;;;;;;;4.00;3.45;;;;;;;7.90;90.57;97096.85;1747857;82;20988;-84
2021/11/19 10:32:18;;;;;;;3.30;3.00;;;;;;;7.94;90.55;97104.64;1706201;82;21062;-84
2021/11/19 10:34:50;;;;;;;4.67;4.30;;;;;;;7.96;90.84;97095.77;1744226;82;20944;-84
2021/11/19 10:37:40;;;;;;;5.37;4.87;;;;;;;7.96;90.78;97099.66;1747993;81;20971;-84
2021/11/19 10:40:42;;;;;;;5.12;4.53;;;;;;;7.99;90.73;97098.57;1747399;82;21009;-84
2021/11/19 10:43:20;;;;;;;4.33;3.92;;;;;;;8.00;90.98;97097.13;1747794;82;21017;-84
2021/11/19 10:46:26;;;;;;;3.95;3.55;;;;;;;7.99;90.94;97090.80;1748067;82;20979;-84
2021/11/19 10:49:09;;;;;;;5.17;4.67;;;;;;;8.02;90.91;97086.62;1748173;82;21011;-84
2021/11/19 10:52:17;;;;;;;5.70;5.30;;;;;;;8.00;91.00;97081.59;1748259;82;21020;-84
2021/11/19 10:55:04;;;;;;;6.50;5.15;;;;;;;8.00;90.97;97084.19;1777712;80;21054;-84
2021/11/19 10:57:50;;;;;;;6.30;5.30;;;;;;;7.98;91.10;97077.05;1797770;80;21034;-84
2021/11/19 11:00:39;;;;;;;4.20;3.83;;;;;;;8.00;91.28;97082.08;1761718;80;20987;-84
2021/11/19 11:03:15;;;;;;;5.87;4.90;;;;;;;8.01;90.88;97076.75;1797934;80;21055;-84
2021/11/19 11:05:43;;;;;;;4.83;4.42;;;;;;;8.05;91.01;97074.67;1797861;80;21019;-84
2021/11/19 11:08:30;;;;;;;10.88;9.78;;;;;;;8.07;90.88;97079.22;1797811;80;21011;-84
2021/11/19 11:11:03;;;;;;;9.88;7.83;;;;;;;8.12;90.97;97071.33;1797868;80;20993;-84
2021/11/19 11:13:36;;;;;;;7.97;5.25;;;;;;;8.14;90.86;97068.61;1797791;80;21038;-84
2021/11/19 11:16:08;;;;;;;6.00;4.83;;;;;;;8.10;90.85;97077.14;1796772;80;20983;-84
2021/11/19 11:18:56;;;;;;;7.60;5.58;;;;;;;8.11;90.88;97068.89;1793400;80;21019;-84
2021/11/19 11:21:33;;;;;;;6.42;5.00;;;;;;;8.15;90.92;97062.95;1797892;80;20944;-84
2021/11/19 11:24:23;;;;;;;5.72;5.10;;;;;;;8.19;90.89;97068.16;1798056;80;20987;-84
2021/11/19 11:27:06;;;;;;;6.17;5.28;;;;;;;8.21;91.00;97057.17;1797850;80;20991;-84
2021/11/19 11:29:46;;;;;;;5.75;5.22;;;;;;;8.22;90.47;97068.66;1798009;80;21002;-84
2021/11/19 11:32:29;;;;;;;6.45;5.85;;;;;;;8.22;90.55;97068.66;1791508;79;21035;-84
2021/11/19 11:35:12;;;;;;;5.75;4.80;;;;;;;8.23;90.62;97061.70;1797914;80;21029;-84
2021/11/19 11:38:10;;;;;;;8.70;6.42;;;;;;;8.23;90.42;97069.48;1798128;80;21417;-84
2021/11/19 11:40:41;;;;;;;6.40;5.80;;;;;;;8.23;90.53;97069.48;1797441;80;20952;-84
2021/11/19 11:43:32;;;;;;;6.55;5.85;;;;;;;8.28;90.67;97078.41;1797598;80;21035;-84
2021/11/19 11:46:33;;;;;;;7.20;6.17;;;;;;;8.29;90.67;97068.86;1797917;80;21051;-84
2021/11/19 11:49:25;;;;;;;9.70;7.70;;;;;;;8.26;90.34;97080.83;1797960;80;21015;-84
2021/11/19 11:51:56;;;;;;;13.35;10.13;;;;;;;8.22;90.47;97080.80;1798059;80;21043;-84
2021/11/19 11:54:28;;;;;;;10.88;8.70;;;;;;;8.19;90.65;97083.21;1799208;80;21023;-84
2021/11/19 11:57:24;;;;;;;8.78;7.87;;;;;;;8.20;90.57;97080.95;1800961;80;21075;-83
2021/11/19 12:00:14;;;;;;;16.52;11.22;;;;;;;8.24;90.48;97081.45;1799744;80;20978;-84
2021/11/19 12:03:23;;;;;;;16.35;11.45;;;;;;;8.26;90.47;97072.57;1800904;80;20975;-84